sensor_id;sensor_type;location;lat;lon;timestamp;pressure;altitude;pressure_sealevel;temperature;humidity
17309;BME280;8772;42.804;23.426;2022-09-09T00:02:27;94846.91;;;16.72;100.00
17309;BME280;8772;42.804;23.426;2022-09-09T00:04:59;94845.28;;;16.74;100.00
17309;BME280;8772;42.804;23.426;2022-09-09T00:07:37;94838.44;;;16.52;100.00
17309;BME280;8772;42.804;23.426;2022-09-09T00:10:15;94837.22;;;16.53;100.00
17309;BME280;8772;42.804;23.426;2022-09-09T00:12:52;94844.13;;;16.54;100.00
17309;BME280;8772;42.804;23.426;2022-09-09T00:15:24;94833.03;;;16.52;100.00
17309;BME280;8772;42.804;23.426;2022-09-09T00:17:56;94840.19;;;16.46;100.00
17309;BME280;8772;42.804;23.426;2022-09-09T00:20:29;94840.78;;;16.28;100.00
17309;BME280;8772;42.804;23.426;2022-09-09T00:23:03;94835.22;;;16.44;100.00
17309;BME280;8772;42.804;23.426;2022-09-09T00:25:39;94832.50;;;16.44;100.00
17309;BME280;8772;42.804;23.426;2022-09-09T00:28:13;94829.97;;;16.41;100.00
17309;BME280;8772;42.804;23.426;2022-09-09T00:30:44;94828.78;;;16.42;100.00
17309;BME280;8772;42.804;23.426;2022-09-09T00:33:15;94828.00;;;16.41;100.00
17309;BME280;8772;42.804;23.426;2022-09-09T00:35:46;94823.38;;;16.42;100.00
17309;BME280;8772;42.804;23.426;2022-09-09T00:38:15;94824.47;;;16.32;100.00
17309;BME280;8772;42.804;23.426;2022-09-09T00:40:49;94825.88;;;16.36;100.00
17309;BME280;8772;42.804;23.426;2022-09-09T00:43:27;94822.09;;;16.34;100.00
17309;BME280;8772;42.804;23.426;2022-09-09T00:46:16;94825.06;;;16.27;100.00
17309;BME280;8772;42.804;23.426;2022-09-09T00:48:56;94824.72;;;16.25;100.00
17309;BME280;8772;42.804;23.426;2022-09-09T00:51:34;94816.31;;;16.23;100.00
17309;BME280;8772;42.804;23.426;2022-09-09T00:54:24;94813.00;;;16.19;100.00
17309;BME280;8772;42.804;23.426;2022-09-09T00:57:04;94818.84;;;16.17;100.00
17309;BME280;8772;42.804;23.426;2022-09-09T00:59:46;94811.81;;;16.20;100.00
17309;BME280;8772;42.804;23.426;2022-09-09T01:02:19;94813.91;;;16.16;100.00
17309;BME280;8772;42.804;23.426;2022-09-09T01:08:16;94825.81;;;16.06;100.00
17309;BME280;8772;42.804;23.426;2022-09-09T01:10:50;94819.22;;;16.07;100.00
17309;BME280;8772;42.804;23.426;2022-09-09T01:13:23;94817.94;;;15.90;100.00
17309;BME280;8772;42.804;23.426;2022-09-09T01:15:53;94824.56;;;15.98;100.00
17309;BME280;8772;42.804;23.426;2022-09-09T01:18:23;94801.78;;;15.99;100.00
17309;BME280;8772;42.804;23.426;2022-09-09T01:20:58;94813.53;;;16.05;100.00
17309;BME280;8772;42.804;23.426;2022-09-09T01:23:59;94808.31;;;16.10;100.00
17309;BME280;8772;42.804;23.426;2022-09-09T01:26:34;94805.03;;;16.15;100.00
17309;BME280;8772;42.804;23.426;2022-09-09T01:29:02;94810.50;;;16.24;100.00
17309;BME280;8772;42.804;23.426;2022-09-09T01:31:33;94808.41;;;16.28;100.00
17309;BME280;8772;42.804;23.426;2022-09-09T01:34:04;94819.09;;;16.32;100.00
17309;BME280;8772;42.804;23.426;2022-09-09T01:36:39;94818.13;;;16.26;100.00
17309;BME280;8772;42.804;23.426;2022-09-09T01:39:09;94817.03;;;16.36;100.00
17309;BME280;8772;42.804;23.426;2022-09-09T01:41:38;94831.16;;;16.40;100.00
17309;BME280;8772;42.804;23.426;2022-09-09T01:44:06;94829.50;;;16.42;100.00
17309;BME280;8772;42.804;23.426;2022-09-09T01:46:34;94831.78;;;16.44;100.00
17309;BME280;8772;42.804;23.426;2022-09-09T01:49:02;94829.50;;;16.42;100.00
17309;BME280;8772;42.804;23.426;2022-09-09T01:51:30;94841.38;;;16.45;100.00
17309;BME280;8772;42.804;23.426;2022-09-09T01:53:57;94843.66;;;16.46;100.00
17309;BME280;8772;42.804;23.426;2022-09-09T01:56:36;94834.91;;;16.42;100.00
17309;BME280;8772;42.804;23.426;2022-09-09T01:59:23;94836.34;;;16.34;100.00
17309;BME280;8772;42.804;23.426;2022-09-09T02:02:01;94835.59;;;16.34;100.00
17309;BME280;8772;42.804;23.426;2022-09-09T02:04:37;94833.78;;;16.31;100.00
17309;BME280;8772;42.804;23.426;2022-09-09T02:07:12;94832.81;;;16.25;100.00
17309;BME280;8772;42.804;23.426;2022-09-09T02:09:43;94835.66;;;16.21;100.00
17309;BME280;8772;42.804;23.426;2022-09-09T02:12:15;94833.41;;;16.20;100.00
17309;BME280;8772;42.804;23.426;2022-09-09T02:14:50;94838.31;;;16.12;100.00
17309;BME280;8772;42.804;23.426;2022-09-09T02:17:22;94833.59;;;16.04;100.00
17309;BME280;8772;42.804;23.426;2022-09-09T02:19:56;94824.56;;;15.98;100.00
17309;BME280;8772;42.804;23.426;2022-09-09T02:22:26;94828.72;;;15.90;100.00
17309;BME280;8772;42.804;23.426;2022-09-09T02:24:56;94825.38;;;15.86;100.00
17309;BME280;8772;42.804;23.426;2022-09-09T02:27:25;94824.44;;;15.80;100.00
17309;BME280;8772;42.804;23.426;2022-09-09T02:29:56;94816.69;;;15.69;100.00
17309;BME280;8772;42.804;23.426;2022-09-09T02:32:25;94820.06;;;15.61;100.00
17309;BME280;8772;42.804;23.426;2022-09-09T02:34:59;94826.34;;;15.58;100.00
17309;BME280;8772;42.804;23.426;2022-09-09T02:37:30;94819.44;;;15.57;100.00
17309;BME280;8772;42.804;23.426;2022-09-09T02:39:59;94823.03;;;15.54;100.00
17309;BME280;8772;42.804;23.426;2022-09-09T02:42:25;94828.31;;;15.57;100.00
17309;BME280;8772;42.804;23.426;2022-09-09T02:44:54;94822.91;;;15.57;100.00
17309;BME280;8772;42.804;23.426;2022-09-09T02:47:26;94822.22;;;15.66;100.00
17309;BME280;8772;42.804;23.426;2022-09-09T02:50:04;94836.41;;;15.79;100.00
17309;BME280;8772;42.804;23.426;2022-09-09T02:52:42;94831.66;;;15.83;100.00
17309;BME280;8772;42.804;23.426;2022-09-09T02:55:18;94830.53;;;15.93;100.00
17309;BME280;8772;42.804;23.426;2022-09-09T02:57:49;94828.75;;;15.99;100.00
17309;BME280;8772;42.804;23.426;2022-09-09T03:00:23;94833.28;;;16.02;100.00
17309;BME280;8772;42.804;23.426;2022-09-09T03:02:50;94835.22;;;16.01;100.00
17309;BME280;8772;42.804;23.426;2022-09-09T03:05:18;94830.91;;;16.04;100.00
17309;BME280;8772;42.804;23.426;2022-09-09T03:07:45;94831.75;;;16.01;100.00
17309;BME280;8772;42.804;23.426;2022-09-09T03:10:12;94824.25;;;15.96;100.00
17309;BME280;8772;42.804;23.426;2022-09-09T03:12:39;94828.72;;;15.90;100.00
17309;BME280;8772;42.804;23.426;2022-09-09T03:15:07;94836.81;;;15.90;100.00
17309;BME280;8772;42.804;23.426;2022-09-09T03:17:36;94841.44;;;15.89;100.00
17309;BME280;8772;42.804;23.426;2022-09-09T03:20:04;94847.19;;;15.79;100.00
17309;BME280;8772;42.804;23.426;2022-09-09T03:22:31;94850.63;;;15.79;100.00
17309;BME280;8772;42.804;23.426;2022-09-09T03:24:58;94846.19;;;15.64;100.00
17309;BME280;8772;42.804;23.426;2022-09-09T03:27:25;94844.91;;;15.56;100.00
17309;BME280;8772;42.804;23.426;2022-09-09T03:29:52;94843.00;;;15.44;100.00
17309;BME280;8772;42.804;23.426;2022-09-09T03:32:19;94849.16;;;15.32;100.00
17309;BME280;8772;42.804;23.426;2022-09-09T03:34:49;94838.81;;;15.31;100.00
17309;BME280;8772;42.804;23.426;2022-09-09T03:37:16;94836.22;;;15.27;100.00
17309;BME280;8772;42.804;23.426;2022-09-09T03:39:43;94838.91;;;15.27;100.00
17309;BME280;8772;42.804;23.426;2022-09-09T03:42:12;94840.06;;;15.26;100.00
17309;BME280;8772;42.804;23.426;2022-09-09T03:44:44;94842.91;;;15.23;100.00
17309;BME280;8772;42.804;23.426;2022-09-09T03:47:16;94839.13;;;15.20;100.00
17309;BME280;8772;42.804;23.426;2022-09-09T03:49:43;94837.84;;;15.12;100.00
17309;BME280;8772;42.804;23.426;2022-09-09T03:52:12;94839.47;;;15.10;100.00
17309;BME280;8772;42.804;23.426;2022-09-09T03:54:38;94834.84;;;15.10;100.00
17309;BME280;8772;42.804;23.426;2022-09-09T03:57:07;94830.66;;;14.97;100.00
17309;BME280;8772;42.804;23.426;2022-09-09T03:59:34;94836.38;;;14.99;100.00
17309;BME280;8772;42.804;23.426;2022-09-09T04:02:01;94834.66;;;14.92;100.00
17309;BME280;8772;42.804;23.426;2022-09-09T04:04:28;94844.13;;;14.97;100.00
17309;BME280;8772;42.804;23.426;2022-09-09T04:06:55;94849.63;;;14.93;100.00
17309;BME280;8772;42.804;23.426;2022-09-09T04:09:24;94847.88;;;14.99;100.00
17309;BME280;8772;42.804;23.426;2022-09-09T04:11:50;94843.47;;;15.05;100.00
17309;BME280;8772;42.804;23.426;2022-09-09T04:14:18;94849.50;;;15.09;100.00
17309;BME280;8772;42.804;23.426;2022-09-09T04:16:45;94844.22;;;15.06;100.00
17309;BME280;8772;42.804;23.426;2022-09-09T04:19:12;94847.78;;;15.15;100.00
17309;BME280;8772;42.804;23.426;2022-09-09T04:21:40;94848.50;;;15.16;100.00
17309;BME280;8772;42.804;23.426;2022-09-09T04:24:08;94851.44;;;15.09;100.00
17309;BME280;8772;42.804;23.426;2022-09-09T04:26:37;94841.97;;;15.04;100.00
17309;BME280;8772;42.804;23.426;2022-09-09T04:29:04;94842.69;;;15.05;100.00
17309;BME280;8772;42.804;23.426;2022-09-09T04:31:32;94839.69;;;15.15;100.00
17309;BME280;8772;42.804;23.426;2022-09-09T04:33:59;94838.50;;;15.16;100.00
17309;BME280;8772;42.804;23.426;2022-09-09T04:36:30;94831.06;;;15.20;100.00
17309;BME280;8772;42.804;23.426;2022-09-09T04:38:57;94834.63;;;15.17;100.00
17309;BME280;8772;42.804;23.426;2022-09-09T04:41:24;94849.28;;;15.16;100.00
17309;BME280;8772;42.804;23.426;2022-09-09T04:43:52;94857.88;;;15.11;100.00
17309;BME280;8772;42.804;23.426;2022-09-09T04:46:19;94861.22;;;15.28;100.00
17309;BME280;8772;42.804;23.426;2022-09-09T04:48:46;94871.03;;;15.34;100.00
17309;BME280;8772;42.804;23.426;2022-09-09T04:51:14;94854.00;;;15.37;100.00
17309;BME280;8772;42.804;23.426;2022-09-09T04:53:40;94858.75;;;15.33;100.00
17309;BME280;8772;42.804;23.426;2022-09-09T04:56:09;94848.59;;;15.37;100.00
17309;BME280;8772;42.804;23.426;2022-09-09T04:58:37;94841.50;;;15.43;100.00
17309;BME280;8772;42.804;23.426;2022-09-09T05:01:07;94837.91;;;15.46;100.00
17309;BME280;8772;42.804;23.426;2022-09-09T05:03:34;94844.19;;;15.43;100.00
17309;BME280;8772;42.804;23.426;2022-09-09T05:06:05;94848.69;;;15.46;100.00
17309;BME280;8772;42.804;23.426;2022-09-09T05:08:34;94839.09;;;15.45;100.00
17309;BME280;8772;42.804;23.426;2022-09-09T05:11:01;94833.59;;;15.48;100.00
17309;BME280;8772;42.804;23.426;2022-09-09T05:13:28;94825.84;;;15.50;100.00
17309;BME280;8772;42.804;23.426;2022-09-09T05:15:57;94832.72;;;15.51;100.00
17309;BME280;8772;42.804;23.426;2022-09-09T05:18:25;94839.75;;;15.49;100.00
17309;BME280;8772;42.804;23.426;2022-09-09T05:20:52;94841.94;;;15.63;100.00
17309;BME280;8772;42.804;23.426;2022-09-09T05:23:24;94842.16;;;15.68;100.00
17309;BME280;8772;42.804;23.426;2022-09-09T05:25:58;94836.66;;;15.72;100.00
17309;BME280;8772;42.804;23.426;2022-09-09T05:28:25;94831.03;;;15.79;100.00
17309;BME280;8772;42.804;23.426;2022-09-09T05:30:56;94831.41;;;15.90;100.00
17309;BME280;8772;42.804;23.426;2022-09-09T05:33:25;94837.72;;;15.96;100.00
17309;BME280;8772;42.804;23.426;2022-09-09T05:35:59;94845.00;;;16.08;100.00
17309;BME280;8772;42.804;23.426;2022-09-09T05:38:27;94836.19;;;16.07;100.00
17309;BME280;8772;42.804;23.426;2022-09-09T05:40:54;94833.72;;;16.22;100.00
17309;BME280;8772;42.804;23.426;2022-09-09T05:43:22;94825.19;;;16.23;100.00
17309;BME280;8772;42.804;23.426;2022-09-09T05:45:59;94831.16;;;16.40;100.00
17309;BME280;8772;42.804;23.426;2022-09-09T05:48:29;94830.00;;;16.50;100.00
17309;BME280;8772;42.804;23.426;2022-09-09T05:50:57;94832.31;;;16.60;100.00
17309;BME280;8772;42.804;23.426;2022-09-09T05:53:25;94839.41;;;16.76;100.00
17309;BME280;8772;42.804;23.426;2022-09-09T05:55:58;94825.22;;;16.84;100.00
17309;BME280;8772;42.804;23.426;2022-09-09T05:58:25;94832.78;;;16.98;100.00
17309;BME280;8772;42.804;23.426;2022-09-09T06:00:53;94839.88;;;17.14;100.00
17309;BME280;8772;42.804;23.426;2022-09-09T06:03:26;94839.31;;;17.28;100.00
17309;BME280;8772;42.804;23.426;2022-09-09T06:05:58;94844.16;;;17.42;100.00
17309;BME280;8772;42.804;23.426;2022-09-09T06:08:26;94857.13;;;17.56;100.00
17309;BME280;8772;42.804;23.426;2022-09-09T06:10:53;94843.59;;;17.73;100.00
17309;BME280;8772;42.804;23.426;2022-09-09T06:13:20;94844.34;;;17.92;100.00
17309;BME280;8772;42.804;23.426;2022-09-09T06:15:50;94846.00;;;18.07;100.00
17309;BME280;8772;42.804;23.426;2022-09-09T06:18:17;94854.72;;;18.20;100.00
17309;BME280;8772;42.804;23.426;2022-09-09T06:20:54;94853.69;;;18.36;100.00
17309;BME280;8772;42.804;23.426;2022-09-09T06:23:22;94850.94;;;18.54;100.00
17309;BME280;8772;42.804;23.426;2022-09-09T06:25:49;94856.47;;;18.68;99.68
17309;BME280;8772;42.804;23.426;2022-09-09T06:28:16;94865.16;;;18.81;97.17
17309;BME280;8772;42.804;23.426;2022-09-09T06:30:44;94863.56;;;18.98;99.24
17309;BME280;8772;42.804;23.426;2022-09-09T06:33:12;94865.34;;;19.10;95.91
17309;BME280;8772;42.804;23.426;2022-09-09T06:35:39;94855.53;;;19.22;92.92
17309;BME280;8772;42.804;23.426;2022-09-09T06:38:06;94845.69;;;19.33;93.55
17309;BME280;8772;42.804;23.426;2022-09-09T06:40:35;94839.63;;;19.38;93.42
17309;BME280;8772;42.804;23.426;2022-09-09T06:43:02;94842.28;;;19.47;94.13
17309;BME280;8772;42.804;23.426;2022-09-09T06:45:29;94844.66;;;19.54;95.09
17309;BME280;8772;42.804;23.426;2022-09-09T06:47:56;94838.53;;;19.68;92.95
17309;BME280;8772;42.804;23.426;2022-09-09T06:50:23;94833.31;;;19.79;91.49
17309;BME280;8772;42.804;23.426;2022-09-09T06:52:50;94826.63;;;19.89;86.75
17309;BME280;8772;42.804;23.426;2022-09-09T06:55:17;94844.03;;;19.97;90.31
17309;BME280;8772;42.804;23.426;2022-09-09T06:57:46;94844.16;;;20.03;91.20
17309;BME280;8772;42.804;23.426;2022-09-09T07:00:14;94853.84;;;20.18;86.49
17309;BME280;8772;42.804;23.426;2022-09-09T07:02:41;94854.63;;;20.33;85.36
17309;BME280;8772;42.804;23.426;2022-09-09T07:05:08;94859.22;;;20.41;85.19
17309;BME280;8772;42.804;23.426;2022-09-09T07:07:36;94852.38;;;20.46;83.24
17309;BME280;8772;42.804;23.426;2022-09-09T07:10:04;94864.59;;;20.65;84.81
17309;BME280;8772;42.804;23.426;2022-09-09T07:12:31;94857.53;;;20.73;83.70
17309;BME280;8772;42.804;23.426;2022-09-09T07:14:59;94859.88;;;20.80;85.19
17309;BME280;8772;42.804;23.426;2022-09-09T07:17:26;94848.28;;;20.94;83.17
17309;BME280;8772;42.804;23.426;2022-09-09T07:19:54;94845.28;;;21.06;81.83
17309;BME280;8772;42.804;23.426;2022-09-09T07:22:22;94848.72;;;21.07;78.48
17309;BME280;8772;42.804;23.426;2022-09-09T07:24:49;94845.91;;;21.16;76.17
17309;BME280;8772;42.804;23.426;2022-09-09T07:27:15;94840.91;;;21.29;79.34
17309;BME280;8772;42.804;23.426;2022-09-09T07:29:42;94846.75;;;21.42;79.24
17309;BME280;8772;42.804;23.426;2022-09-09T07:32:12;94850.03;;;21.46;78.74
17309;BME280;8772;42.804;23.426;2022-09-09T07:34:39;94851.59;;;21.67;78.18
17309;BME280;8772;42.804;23.426;2022-09-09T07:37:05;94843.00;;;21.74;75.12
17309;BME280;8772;42.804;23.426;2022-09-09T07:39:33;94851.19;;;21.94;75.23
17309;BME280;8772;42.804;23.426;2022-09-09T07:42:00;94837.25;;;22.12;76.48
17309;BME280;8772;42.804;23.426;2022-09-09T07:44:27;94849.31;;;22.25;73.71
17309;BME280;8772;42.804;23.426;2022-09-09T07:46:54;94837.75;;;22.36;74.58
17309;BME280;8772;42.804;23.426;2022-09-09T07:49:22;94846.34;;;22.48;75.16
17309;BME280;8772;42.804;23.426;2022-09-09T07:51:49;94842.50;;;22.60;72.46
17309;BME280;8772;42.804;23.426;2022-09-09T07:54:17;94851.59;;;22.77;75.19
17309;BME280;8772;42.804;23.426;2022-09-09T07:56:46;94853.44;;;22.91;74.19
17309;BME280;8772;42.804;23.426;2022-09-09T07:59:13;94856.38;;;23.13;72.38
17309;BME280;8772;42.804;23.426;2022-09-09T08:01:42;94855.66;;;23.18;70.01
17309;BME280;8772;42.804;23.426;2022-09-09T08:04:10;94841.78;;;23.22;68.73
17309;BME280;8772;42.804;23.426;2022-09-09T08:06:43;94841.25;;;23.54;70.49
17309;BME280;8772;42.804;23.426;2022-09-09T08:09:12;94840.03;;;23.61;70.60
17309;BME280;8772;42.804;23.426;2022-09-09T08:11:40;94846.38;;;23.83;68.39
17309;BME280;8772;42.804;23.426;2022-09-09T08:14:08;94848.97;;;24.03;65.66
17309;BME280;8772;42.804;23.426;2022-09-09T08:16:37;94846.25;;;24.09;68.06
17309;BME280;8772;42.804;23.426;2022-09-09T08:19:06;94844.25;;;24.09;60.42
17309;BME280;8772;42.804;23.426;2022-09-09T08:21:34;94843.59;;;24.36;63.52
17309;BME280;8772;42.804;23.426;2022-09-09T08:24:04;94845.91;;;24.54;65.15
17309;BME280;8772;42.804;23.426;2022-09-09T08:26:32;94842.44;;;24.76;64.36
17309;BME280;8772;42.804;23.426;2022-09-09T08:29:00;94843.94;;;25.04;61.26
17309;BME280;8772;42.804;23.426;2022-09-09T08:31:30;94844.69;;;25.32;57.57
17309;BME280;8772;42.804;23.426;2022-09-09T08:33:58;94841.22;;;25.04;56.13
17309;BME280;8772;42.804;23.426;2022-09-09T08:36:28;94840.72;;;25.00;57.06
17309;BME280;8772;42.804;23.426;2022-09-09T08:38:56;94823.75;;;25.51;62.96
17309;BME280;8772;42.804;23.426;2022-09-09T08:41:46;94829.66;;;25.77;60.33
17309;BME280;8772;42.804;23.426;2022-09-09T08:44:25;94831.34;;;26.02;54.53
17309;BME280;8772;42.804;23.426;2022-09-09T08:47:00;94822.69;;;25.87;53.50
17309;BME280;8772;42.804;23.426;2022-09-09T08:49:43;94825.66;;;25.78;57.25
17309;BME280;8772;42.804;23.426;2022-09-09T08:52:17;94825.44;;;25.76;52.36
17309;BME280;8772;42.804;23.426;2022-09-09T08:54:46;94819.38;;;25.99;55.33
17309;BME280;8772;42.804;23.426;2022-09-09T08:57:21;94826.50;;;26.19;53.57
17309;BME280;8772;42.804;23.426;2022-09-09T08:59:52;94821.09;;;26.02;52.78
17309;BME280;8772;42.804;23.426;2022-09-09T09:02:24;94817.63;;;26.02;51.65
17309;BME280;8772;42.804;23.426;2022-09-09T09:05:06;94814.50;;;26.27;54.05
17309;BME280;8772;42.804;23.426;2022-09-09T09:07:44;94812.53;;;26.28;53.92
17309;BME280;8772;42.804;23.426;2022-09-09T09:10:20;94816.41;;;25.97;50.45
17309;BME280;8772;42.804;23.426;2022-09-09T09:12:57;94818.06;;;26.17;54.13
17309;BME280;8772;42.804;23.426;2022-09-09T09:15:31;94820.81;;;26.63;54.09
17309;BME280;8772;42.804;23.426;2022-09-09T09:18:02;94818.03;;;26.98;57.54
17309;BME280;8772;42.804;23.426;2022-09-09T09:20:34;94824.50;;;27.35;52.34
17309;BME280;8772;42.804;23.426;2022-09-09T09:23:05;94819.88;;;27.72;49.60
17309;BME280;8772;42.804;23.426;2022-09-09T09:25:35;94817.09;;;27.96;46.58
17309;BME280;8772;42.804;23.426;2022-09-09T09:28:13;94808.50;;;28.05;47.72
17309;BME280;8772;42.804;23.426;2022-09-09T09:30:44;94809.25;;;28.24;49.07
17309;BME280;8772;42.804;23.426;2022-09-09T09:33:20;94802.38;;;28.36;50.95
17309;BME280;8772;42.804;23.426;2022-09-09T09:35:49;94804.06;;;28.58;51.80
17309;BME280;8772;42.804;23.426;2022-09-09T09:38:17;94805.81;;;28.74;50.88
17309;BME280;8772;42.804;23.426;2022-09-09T09:40:49;94805.50;;;28.96;48.21
17309;BME280;8772;42.804;23.426;2022-09-09T09:43:23;94802.31;;;29.23;49.73
17309;BME280;8772;42.804;23.426;2022-09-09T09:45:51;94798.63;;;29.47;49.90
17309;BME280;8772;42.804;23.426;2022-09-09T09:48:18;94794.50;;;29.53;44.43
17309;BME280;8772;42.804;23.426;2022-09-09T09:50:50;94790.47;;;28.97;44.30
17309;BME280;8772;42.804;23.426;2022-09-09T09:53:21;94795.25;;;29.09;46.64
17309;BME280;8772;42.804;23.426;2022-09-09T09:55:54;94786.34;;;29.03;46.68
17309;BME280;8772;42.804;23.426;2022-09-09T09:58:23;94789.13;;;29.16;46.91
17309;BME280;8772;42.804;23.426;2022-09-09T10:00:52;94789.16;;;29.29;48.12
17309;BME280;8772;42.804;23.426;2022-09-09T10:03:24;94782.16;;;29.28;44.46
17309;BME280;8772;42.804;23.426;2022-09-09T10:05:51;94783.03;;;29.36;47.52
17309;BME280;8772;42.804;23.426;2022-09-09T10:08:19;94786.19;;;29.27;46.87
17309;BME280;8772;42.804;23.426;2022-09-09T10:10:59;94788.09;;;29.32;48.54
17309;BME280;8772;42.804;23.426;2022-09-09T10:13:37;94796.47;;;29.27;48.18
17309;BME280;8772;42.804;23.426;2022-09-09T10:16:40;94790.44;;;29.28;48.64
17309;BME280;8772;42.804;23.426;2022-09-09T10:19:14;94793.50;;;29.25;47.08
17309;BME280;8772;42.804;23.426;2022-09-09T10:22:02;94787.00;;;29.09;46.82
17309;BME280;8772;42.804;23.426;2022-09-09T10:24:54;94798.94;;;28.99;47.19
17309;BME280;8772;42.804;23.426;2022-09-09T10:27:31;94799.84;;;28.88;46.37
17309;BME280;8772;42.804;23.426;2022-09-09T10:30:14;94802.41;;;28.68;48.42
17309;BME280;8772;42.804;23.426;2022-09-09T10:32:48;94804.44;;;28.49;48.32
17309;BME280;8772;42.804;23.426;2022-09-09T10:35:33;94804.06;;;28.39;50.25
17309;BME280;8772;42.804;23.426;2022-09-09T10:38:16;94797.22;;;28.27;49.98
17309;BME280;8772;42.804;23.426;2022-09-09T10:40:59;94801.81;;;28.19;49.87
17309;BME280;8772;42.804;23.426;2022-09-09T10:43:46;94810.94;;;28.09;52.03
17309;BME280;8772;42.804;23.426;2022-09-09T10:46:29;94809.81;;;27.99;51.52
17309;BME280;8772;42.804;23.426;2022-09-09T10:49:12;94811.75;;;27.85;51.49
17309;BME280;8772;42.804;23.426;2022-09-09T10:51:48;94811.06;;;27.79;50.77
17309;BME280;8772;42.804;23.426;2022-09-09T10:54:27;94807.66;;;27.68;52.03
17309;BME280;8772;42.804;23.426;2022-09-09T10:57:00;94811.84;;;27.50;50.42
17309;BME280;8772;42.804;23.426;2022-09-09T10:59:32;94808.19;;;27.42;52.12
17309;BME280;8772;42.804;23.426;2022-09-09T11:02:07;94808.28;;;27.32;52.42
17309;BME280;8772;42.804;23.426;2022-09-09T11:04:46;94807.66;;;27.20;52.00
17309;BME280;8772;42.804;23.426;2022-09-09T11:07:22;94800.69;;;27.19;52.13
17309;BME280;8772;42.804;23.426;2022-09-09T11:09:56;94802.44;;;27.17;52.42
17309;BME280;8772;42.804;23.426;2022-09-09T11:12:27;94803.47;;;27.14;52.45
17309;BME280;8772;42.804;23.426;2022-09-09T11:14:59;94805.47;;;27.08;52.29
17309;BME280;8772;42.804;23.426;2022-09-09T11:17:35;94795.22;;;27.14;54.15
17309;BME280;8772;42.804;23.426;2022-09-09T11:20:05;94794.44;;;27.19;55.22
17309;BME280;8772;42.804;23.426;2022-09-09T11:22:39;94788.16;;;27.24;54.44
17309;BME280;8772;42.804;23.426;2022-09-09T11:25:15;94783.22;;;27.40;53.77
17309;BME280;8772;42.804;23.426;2022-09-09T11:27:54;94776.91;;;27.45;54.46
17309;BME280;8772;42.804;23.426;2022-09-09T11:30:32;94772.91;;;27.46;51.89
17309;BME280;8772;42.804;23.426;2022-09-09T11:36:22;94772.69;;;27.44;51.72
17309;BME280;8772;42.804;23.426;2022-09-09T11:38:52;94773.44;;;27.45;51.64
17309;BME280;8772;42.804;23.426;2022-09-09T11:41:20;94769.09;;;27.31;51.89
17309;BME280;8772;42.804;23.426;2022-09-09T11:43:51;94766.19;;;27.24;53.95
17309;BME280;8772;42.804;23.426;2022-09-09T11:46:20;94747.91;;;27.26;54.39
17309;BME280;8772;42.804;23.426;2022-09-09T11:49:00;94742.84;;;27.36;53.35
17309;BME280;8772;42.804;23.426;2022-09-09T11:51:29;94738.00;;;27.41;52.55
17309;BME280;8772;42.804;23.426;2022-09-09T11:53:58;94733.16;;;27.29;50.50
17309;BME280;8772;42.804;23.426;2022-09-09T11:56:28;94731.25;;;27.19;51.77
17309;BME280;8772;42.804;23.426;2022-09-09T11:58:59;94729.56;;;27.10;53.68
17309;BME280;8772;42.804;23.426;2022-09-09T12:01:38;94719.44;;;27.29;52.20
17309;BME280;8772;42.804;23.426;2022-09-09T12:04:31;94719.50;;;27.24;55.12
17309;BME280;8772;42.804;23.426;2022-09-09T12:07:01;94714.22;;;27.26;53.51
17309;BME280;8772;42.804;23.426;2022-09-09T12:09:36;94718.72;;;27.23;53.09
17309;BME280;8772;42.804;23.426;2022-09-09T12:12:20;94711.75;;;27.22;52.49
17309;BME280;8772;42.804;23.426;2022-09-09T12:14:57;94721.59;;;27.36;54.14
17309;BME280;8772;42.804;23.426;2022-09-09T12:17:26;94711.06;;;27.58;54.21
17309;BME280;8772;42.804;23.426;2022-09-09T12:20:06;94716.69;;;27.47;51.94
17309;BME280;8772;42.804;23.426;2022-09-09T12:22:40;94712.19;;;27.26;52.65
17309;BME280;8772;42.804;23.426;2022-09-09T12:25:16;94709.06;;;27.17;53.63
17309;BME280;8772;42.804;23.426;2022-09-09T12:27:54;94700.22;;;27.47;55.90
17309;BME280;8772;42.804;23.426;2022-09-09T12:30:29;94704.88;;;27.76;56.95
17309;BME280;8772;42.804;23.426;2022-09-09T12:33:02;94700.59;;;27.99;55.39
17309;BME280;8772;42.804;23.426;2022-09-09T12:35:31;94697.13;;;28.30;55.45
17309;BME280;8772;42.804;23.426;2022-09-09T12:38:00;94692.78;;;28.53;56.23
17309;BME280;8772;42.804;23.426;2022-09-09T12:40:29;94685.22;;;28.72;52.88
17309;BME280;8772;42.804;23.426;2022-09-09T12:42:58;94681.06;;;28.97;52.53
17309;BME280;8772;42.804;23.426;2022-09-09T12:45:29;94672.16;;;29.17;53.21
17309;BME280;8772;42.804;23.426;2022-09-09T12:47:58;94674.16;;;29.30;53.30
17309;BME280;8772;42.804;23.426;2022-09-09T12:50:30;94665.13;;;29.42;51.45
17309;BME280;8772;42.804;23.426;2022-09-09T12:53:01;94670.66;;;29.42;52.13
17309;BME280;8772;42.804;23.426;2022-09-09T12:55:30;94667.38;;;29.44;50.69
17309;BME280;8772;42.804;23.426;2022-09-09T12:57:59;94669.59;;;29.32;50.08
17309;BME280;8772;42.804;23.426;2022-09-09T13:00:30;94674.47;;;29.00;50.23
17309;BME280;8772;42.804;23.426;2022-09-09T13:02:58;94667.09;;;28.77;52.77
17309;BME280;8772;42.804;23.426;2022-09-09T13:05:27;94668.63;;;28.91;51.92
17309;BME280;8772;42.804;23.426;2022-09-09T13:08:03;94663.06;;;28.78;51.00
17309;BME280;8772;42.804;23.426;2022-09-09T13:10:32;94666.63;;;28.91;52.58
17309;BME280;8772;42.804;23.426;2022-09-09T13:13:00;94654.66;;;29.02;53.76
17309;BME280;8772;42.804;23.426;2022-09-09T13:15:29;94654.13;;;29.16;53.15
17309;BME280;8772;42.804;23.426;2022-09-09T13:17:57;94660.59;;;29.32;51.99
17309;BME280;8772;42.804;23.426;2022-09-09T13:20:26;94664.72;;;29.38;53.84
17309;BME280;8772;42.804;23.426;2022-09-09T13:22:56;94658.28;;;29.49;53.26
17309;BME280;8772;42.804;23.426;2022-09-09T13:25:26;94651.16;;;29.40;50.76